Terminal Aerodrome Forecast
Issued by NWS

Home | Current Version | Previous Version | Text Only | Print | Product List | Glossary On
Versions: 1 2 3 4 5 6 7 8 9 10 11 12 13 14 15
000
FTUS45 KGGW 310151 AAA
TAFSDY
TAF AMD
KSDY 310151Z 3102/3124 10004KT P6SM SKC
     FM311500 16005KT P6SM FEW250
     FM312100 19008KT P6SM SCT100=

USA.gov is the U.S. government's official web portal to all federal, state and local government web resources and services.